Time;durP1;ratioP1;P1;durP2;ratioP2;P2;SDS_P1;SDS_P2;PMS_P1;PMS_P2;Temp;Humidity;BMP_temperature;BMP_pressure;BME280_temperature;BME280_humidity;BME280_pressure;Samples;Min_cycle;Max_cycle;Signal;HPM_P1;HPM_P2
2023/09/21 00:01:03;;;;;;;0.87;0.80;;;22.00;99.90;;;22.06;59.30;99882.63;6073289;23;97147;-53
2023/09/21 00:03:34;;;;;;;1.80;0.80;;;22.00;99.90;;;22.08;59.03;99880.66;6076482;23;101979;-49
2023/09/21 00:06:00;;;;;;;1.73;0.70;;;22.00;99.90;;;22.11;58.85;99880.34;6086774;23;97316;-53
2023/09/21 00:08:27;;;;;;;1.37;1.03;;;22.00;99.90;;;22.12;59.09;99882.03;6088503;23;96843;-49
2023/09/21 00:10:54;;;;;;;1.20;0.87;;;22.00;99.90;;;22.11;59.08;99884.88;6089452;23;97094;-52
2023/09/21 00:13:27;;;;;;;0.97;0.60;;;22.00;99.90;;;22.12;59.34;99882.03;6083604;23;97817;-50
2023/09/21 00:15:57;;;;;;;1.43;0.80;;;22.10;99.90;;;22.08;59.43;99877.97;6083230;23;101120;-51
2023/09/21 00:18:23;;;;;;;1.10;0.67;;;22.00;99.90;;;22.04;59.40;99868.50;6086574;23;98181;-51
2023/09/21 00:20:55;;;;;;;1.27;0.87;;;22.00;99.90;;;22.06;59.29;99871.91;6086289;23;97437;-53
2023/09/21 00:23:25;;;;;;;0.93;0.67;;;22.00;99.90;;;22.08;59.35;99859.16;6084233;23;102712;-51
2023/09/21 00:25:57;;;;;;;0.93;0.60;;;22.00;99.90;;;22.07;59.46;99867.38;6084824;22;102400;-53
2023/09/21 00:28:24;;;;;;;0.97;0.63;;;22.00;99.90;;;22.04;59.63;99859.59;6083912;23;96983;-53
2023/09/21 00:30:57;;;;;;;0.67;0.60;;;22.00;99.90;;;22.03;59.45;99856.06;6087419;23;97420;-55
2023/09/21 00:33:29;;;;;;;0.80;0.70;;;22.00;99.90;;;22.03;59.44;99850.69;6085140;23;100408;-55
2023/09/21 00:35:59;;;;;;;1.67;0.80;;;22.00;99.90;;;22.01;59.49;99844.63;6084710;22;101643;-52
2023/09/21 00:38:27;;;;;;;1.27;0.50;;;22.00;99.90;;;21.96;59.65;99839.69;6086384;23;97141;-54
2023/09/21 00:41:07;;;;;;;2.47;0.70;;;22.00;99.90;;;21.99;59.63;99841.25;6083855;23;97575;-47
2023/09/21 00:43:33;;;;;;;0.60;0.47;;;22.00;99.90;;;21.97;59.75;99835.16;6082326;23;101837;-53
2023/09/21 00:46:06;;;;;;;1.17;0.70;;;22.00;99.90;;;21.96;58.96;99828.94;6084134;22;97195;-54
2023/09/21 00:48:36;;;;;;;0.90;0.70;;;22.00;99.90;;;21.94;59.79;99832.75;6083838;23;97296;-52
2023/09/21 00:51:07;;;;;;;0.93;0.70;;;22.00;99.90;;;21.93;59.80;99818.50;6058447;23;96988;-47
2023/09/21 00:53:34;;;;;;;1.20;0.70;;;22.00;99.90;;;21.95;59.54;99810.28;6085451;23;97441;-52
2023/09/21 00:56:12;;;;;;;0.60;0.50;;;22.00;99.90;;;21.93;59.72;99799.69;6081960;22;98043;-53
2023/09/21 00:58:44;;;;;;;1.00;0.80;;;21.90;99.90;;;21.94;59.68;99809.44;6080529;23;97315;-51
2023/09/21 01:01:16;;;;;;;0.80;0.60;;;21.90;99.90;;;21.91;59.81;99803.53;6080760;23;97310;-53
2023/09/21 01:03:44;;;;;;;0.80;0.80;;;21.90;99.90;;;21.90;59.75;99801.84;6082830;23;98263;-52
2023/09/21 01:06:10;;;;;;;0.73;0.50;;;21.90;99.90;;;21.90;59.77;99796.47;6082447;22;97225;-51
2023/09/21 01:08:37;;;;;;;2.70;0.90;;;21.90;99.90;;;21.92;59.75;99794.47;6085910;23;97534;-52
2023/09/21 01:11:09;;;;;;;0.70;0.70;;;21.90;99.90;;;21.91;59.65;99787.44;6081625;22;107482;-51
2023/09/21 01:13:35;;;;;;;0.97;0.60;;;21.90;99.90;;;21.95;59.55;99783.44;6081532;22;97439;-54
2023/09/21 01:16:06;;;;;;;1.23;0.70;;;21.90;99.90;;;21.94;59.62;99781.75;6083793;22;100418;-51
2023/09/21 01:18:33;;;;;;;1.33;0.87;;;21.90;99.90;;;21.94;59.69;99781.75;6058760;23;97475;-49
2023/09/21 01:21:04;;;;;;;0.63;0.57;;;21.90;99.90;;;21.96;59.47;99777.06;6082819;22;97307;-53
2023/09/21 01:23:43;;;;;;;0.83;0.60;;;22.00;99.90;;;21.97;59.42;99774.25;6077609;22;102797;-52
2023/09/21 01:26:10;;;;;;;1.37;0.90;;;22.00;99.90;;;21.96;59.50;99774.41;6083939;22;102323;-50
2023/09/21 01:28:37;;;;;;;1.37;0.60;;;22.00;99.90;;;21.98;59.20;99772.41;6083572;23;97263;-54
2023/09/21 01:31:03;;;;;;;1.10;0.70;;;21.90;99.90;;;21.98;59.29;99767.88;6084892;23;96755;-50
2023/09/21 01:33:29;;;;;;;1.63;0.80;;;22.00;99.90;;;22.01;59.24;99766.75;6082659;23;115746;-51
2023/09/21 01:35:55;;;;;;;1.23;0.73;;;22.00;99.90;;;22.00;59.57;99772.28;6086259;23;100250;-52
2023/09/21 01:38:27;;;;;;;1.20;1.00;;;22.00;99.90;;;22.00;59.08;99773.13;6083045;23;98672;-53
2023/09/21 01:40:53;;;;;;;0.73;0.67;;;22.00;99.90;;;21.98;58.87;99764.34;6086567;23;97763;-49
2023/09/21 01:43:19;;;;;;;1.33;0.70;;;21.90;99.90;;;21.98;59.00;99757.13;6086181;23;97118;-53
2023/09/21 01:45:48;;;;;;;0.73;0.70;;;21.90;99.90;;;21.96;59.53;99760.97;6083781;22;97383;-47
2023/09/21 01:48:20;;;;;;;1.63;0.87;;;21.90;99.90;;;21.97;59.33;99749.25;6084567;22;97416;-48
2023/09/21 01:50:49;;;;;;;0.40;0.37;;;21.90;99.90;;;21.95;59.28;99752.06;6084908;23;96848;-48
2023/09/21 01:53:17;;;;;;;0.97;0.80;;;21.90;99.90;;;21.96;59.40;99747.53;6084530;23;97437;-50
2023/09/21 01:55:44;;;;;;;1.63;0.93;;;21.90;99.90;;;21.97;58.06;99746.56;6083515;22;98343;-50
2023/09/21 01:58:11;;;;;;;2.07;0.60;;;21.90;99.90;;;21.97;59.31;99751.91;6086645;23;96889;-50
2023/09/21 02:00:43;;;;;;;1.23;0.73;;;21.90;99.90;;;21.93;59.39;99742.47;6084201;23;97176;-50
2023/09/21 02:03:11;;;;;;;0.80;0.70;;;21.90;99.90;;;21.95;59.26;99740.50;6110724;22;97502;-47
2023/09/21 02:05:40;;;;;;;1.40;0.70;;;21.90;99.90;;;21.94;59.32;99739.66;6114379;22;97482;-49
2023/09/21 02:08:08;;;;;;;1.47;0.93;;;21.90;99.90;;;21.93;59.55;99737.97;6072203;22;96929;-47
2023/09/21 02:10:38;;;;;;;0.77;0.60;;;21.90;99.90;;;21.99;59.24;99731.16;6124294;22;97356;-51
2023/09/21 02:13:08;;;;;;;1.87;0.60;;;21.90;99.90;;;22.02;59.21;99725.50;6117272;22;97846;-52
2023/09/21 02:15:38;;;;;;;2.23;1.00;;;21.90;99.90;;;22.01;57.79;99731.00;6117743;22;97034;-53
2023/09/21 02:18:07;;;;;;;1.33;0.97;;;21.90;99.90;;;21.95;59.20;99725.22;6118020;22;97889;-52
2023/09/21 02:20:38;;;;;;;1.27;0.70;;;21.90;99.90;;;21.97;59.44;99717.88;6116636;22;97309;-50
2023/09/21 02:23:05;;;;;;;1.00;0.50;;;21.90;99.90;;;21.97;59.52;99717.88;6115804;22;97647;-53
2023/09/21 02:25:40;;;;;;;0.40;0.40;;;21.90;99.90;;;21.95;59.43;99719.00;6117082;22;97508;-49
2023/09/21 02:28:12;;;;;;;1.90;0.83;;;21.90;99.90;;;21.99;59.47;99715.06;6117350;22;96982;-49
2023/09/21 02:30:42;;;;;;;1.87;0.73;;;21.90;99.90;;;21.95;59.33;99710.97;6091021;22;96956;-52
2023/09/21 02:33:09;;;;;;;1.37;0.60;;;21.90;99.90;;;21.95;59.51;99702.91;6090830;22;98768;-51
2023/09/21 02:35:41;;;;;;;1.70;0.80;;;21.90;99.90;;;21.96;59.52;99701.91;6116984;22;106282;-49
2023/09/21 02:38:11;;;;;;;0.80;0.53;;;21.90;99.90;;;21.95;59.52;99697.53;6119043;22;97299;-50
2023/09/21 02:40:38;;;;;;;1.30;0.50;;;21.90;99.90;;;21.97;59.53;99700.91;6118979;22;96798;-53
2023/09/21 02:43:08;;;;;;;1.17;0.60;;;21.90;99.90;;;22.00;59.37;99695.25;6119489;22;98630;-47
2023/09/21 02:45:36;;;;;;;1.47;1.10;;;22.00;99.90;;;22.01;59.46;99696.09;6119110;22;97541;-51
2023/09/21 02:48:03;;;;;;;0.73;0.47;;;22.00;99.90;;;22.03;59.26;99692.28;6119501;22;97464;-47
2023/09/21 02:50:30;;;;;;;1.27;0.60;;;22.00;99.90;;;22.02;59.03;99693.28;6115972;22;97716;-53
2023/09/21 02:53:06;;;;;;;0.97;0.83;;;21.90;99.90;;;22.02;58.57;99687.06;6116783;22;98303;-51
2023/09/21 02:55:34;;;;;;;1.13;0.60;;;22.00;99.90;;;22.02;59.22;99687.91;6116851;22;97500;-50
2023/09/21 02:58:10;;;;;;;0.93;0.50;;;21.90;99.90;;;21.94;59.42;99685.09;6116994;22;97078;-49
2023/09/21 03:00:42;;;;;;;1.63;0.67;;;21.90;99.90;;;21.93;59.71;99673.53;6116841;22;97352;-51
2023/09/21 03:03:14;;;;;;;1.40;0.80;;;21.90;99.90;;;21.94;59.48;99674.38;6114387;22;97860;-49
2023/09/21 03:05:45;;;;;;;2.10;0.70;;;21.90;99.90;;;21.95;59.45;99665.31;6117797;22;98492;-52
2023/09/21 03:08:14;;;;;;;1.80;0.90;;;21.90;99.90;;;21.92;59.39;99663.78;6119569;22;97428;-49
2023/09/21 03:10:43;;;;;;;1.10;0.70;;;21.90;99.90;;;21.95;58.71;99668.00;6119264;22;97370;-52
2023/09/21 03:13:10;;;;;;;0.97;0.63;;;21.90;99.90;;;21.90;59.49;99663.09;6116704;22;97477;-51
2023/09/21 03:15:36;;;;;;;1.20;0.70;;;21.90;99.90;;;21.88;59.46;99658.88;6092524;22;97428;-49
2023/09/21 03:18:06;;;;;;;0.67;0.67;;;21.90;99.90;;;21.87;59.75;99657.19;6124607;22;97526;-48
2023/09/21 03:20:32;;;;;;;0.53;0.40;;;21.90;99.90;;;21.87;59.56;99658.03;6117654;22;97191;-54
2023/09/21 03:23:05;;;;;;;0.73;0.60;;;21.90;99.90;;;21.92;59.36;99650.38;6094181;22;102628;-54
2023/09/21 03:25:33;;;;;;;1.43;1.00;;;21.90;99.90;;;21.92;59.46;99652.22;6118678;22;99494;-51
2023/09/21 03:28:15;;;;;;;1.27;0.83;;;21.90;99.90;;;21.90;59.46;99647.00;6120780;22;96999;-52
2023/09/21 03:30:51;;;;;;;0.87;0.60;;;21.90;99.90;;;21.87;59.55;99635.72;6116060;22;97180;-50
2023/09/21 03:33:20;;;;;;;2.50;0.60;;;21.90;99.90;;;21.86;59.48;99631.34;6119899;22;97884;-49
2023/09/21 03:35:47;;;;;;;1.63;0.60;;;21.90;99.90;;;21.85;59.86;99641.25;6117624;22;97216;-53
2023/09/21 03:38:13;;;;;;;1.33;0.60;;;21.90;99.90;;;21.90;58.69;99636.25;6117843;22;96925;-53
2023/09/21 03:40:40;;;;;;;1.00;0.60;;;21.90;99.90;;;21.92;56.19;99633.41;6121427;22;97082;-47
2023/09/21 03:43:15;;;;;;;1.00;0.63;;;21.90;99.90;;;21.88;59.45;99632.03;6115754;22;102872;-49
2023/09/21 03:45:43;;;;;;;1.60;1.00;;;21.90;99.90;;;21.89;59.31;99639.09;6114152;22;101933;-52
2023/09/21 03:48:11;;;;;;;0.90;0.63;;;21.80;99.90;;;21.88;59.15;99632.88;6090677;22;96873;-54
2023/09/21 03:50:38;;;;;;;0.90;0.63;;;21.80;99.90;;;21.90;57.05;99632.72;6122614;22;97050;-47
2023/09/21 03:53:05;;;;;;;1.40;0.80;;;21.90;99.90;;;21.90;59.36;99625.53;6118639;22;101732;-50
2023/09/21 03:55:31;;;;;;;1.10;0.80;;;21.90;99.90;;;21.90;59.47;99619.31;6117356;22;98103;-52
2023/09/21 03:57:58;;;;;;;2.83;0.73;;;21.90;99.90;;;21.90;57.26;99608.56;6117119;22;97401;-51
2023/09/21 04:00:29;;;;;;;1.33;0.80;;;21.90;99.90;;;21.91;56.72;99611.09;6091637;22;96953;-50
2023/09/21 04:02:59;;;;;;;0.83;0.60;;;21.90;99.90;;;21.93;58.70;99613.63;6114610;22;97553;-51
2023/09/21 04:05:33;;;;;;;0.93;0.80;;;21.80;99.90;;;21.89;59.27;99596.16;6117026;22;99169;-52
2023/09/21 04:07:59;;;;;;;1.60;0.80;;;21.80;99.90;;;21.90;59.20;99613.94;6119573;22;97066;-53
2023/09/21 04:10:26;;;;;;;1.63;0.77;;;21.80;99.90;;;21.88;59.62;99599.81;6108370;22;97164;-48
2023/09/21 04:12:55;;;;;;;3.13;0.87;;;21.80;99.90;;;21.83;59.49;99602.94;6117508;22;96980;-53
2023/09/21 04:15:22;;;;;;;1.00;0.80;;;21.80;99.90;;;21.82;59.47;99595.06;6118812;22;96996;-47
2023/09/21 04:17:49;;;;;;;1.13;0.77;;;21.80;99.90;;;21.85;59.62;99600.13;6118278;22;97394;-55
2023/09/21 04:20:16;;;;;;;1.10;0.70;;;21.80;99.90;;;21.86;59.52;99585.72;6118848;22;97216;-54
2023/09/21 04:22:43;;;;;;;1.30;0.63;;;21.80;99.90;;;21.84;59.40;99593.06;6118072;22;96924;-52
2023/09/21 04:25:14;;;;;;;1.10;0.60;;;21.80;99.90;;;21.85;59.69;99579.50;6121119;22;97243;-51
2023/09/21 04:27:51;;;;;;;1.07;0.80;;;21.80;99.90;;;21.80;59.50;99586.31;6118313;22;97257;-49
2023/09/21 04:30:21;;;;;;;0.93;0.50;;;21.80;99.90;;;21.84;59.54;99588.53;6113249;22;97103;-50
2023/09/21 04:32:48;;;;;;;1.30;0.80;;;21.80;99.90;;;21.82;59.48;99589.69;6115795;22;97312;-51
2023/09/21 04:35:20;;;;;;;1.23;0.67;;;21.80;99.90;;;21.85;59.57;99584.88;6117460;22;96891;-49
2023/09/21 04:37:48;;;;;;;1.07;0.67;;;21.80;99.90;;;21.90;59.23;99582.56;6091156;22;97539;-54
2023/09/21 04:40:15;;;;;;;1.43;0.80;;;21.80;99.90;;;21.87;59.30;99582.03;6117659;22;97528;-50
2023/09/21 04:42:46;;;;;;;1.13;0.50;;;21.90;99.90;;;21.85;59.45;99578.66;6111316;22;96642;-54
2023/09/21 04:45:14;;;;;;;0.90;0.80;;;21.80;99.90;;;21.84;59.44;99583.16;6110070;22;97144;-52
2023/09/21 04:47:45;;;;;;;1.03;0.80;;;21.80;99.90;;;21.86;59.33;99585.72;6113730;22;97286;-51
2023/09/21 04:50:13;;;;;;;2.07;1.00;;;21.80;99.90;;;21.88;57.58;99581.88;6111420;22;97273;-52
2023/09/21 04:52:39;;;;;;;0.70;0.53;;;21.90;99.90;;;21.87;59.24;99582.03;6116722;22;97281;-51
2023/09/21 04:55:08;;;;;;;1.70;0.70;;;21.80;99.90;;;21.85;59.41;99578.66;6112254;22;104033;-51
2023/09/21 04:57:35;;;;;;;1.30;0.73;;;21.80;99.90;;;21.86;59.34;99580.34;6113661;22;98457;-51
2023/09/21 05:00:07;;;;;;;1.70;0.80;;;21.80;99.90;;;21.85;59.25;99578.66;6113207;22;97153;-51
2023/09/21 05:02:34;;;;;;;1.47;1.00;;;21.80;99.90;;;21.87;58.26;99584.72;6108754;22;97819;-51
2023/09/21 05:05:00;;;;;;;1.17;0.83;;;21.90;99.90;;;21.89;57.43;99585.41;6108502;22;97623;-50
2023/09/21 05:07:27;;;;;;;1.33;0.70;;;21.90;99.90;;;21.90;58.62;99592.47;6111127;22;97235;-53
2023/09/21 05:09:53;;;;;;;1.63;0.97;;;21.80;99.90;;;21.88;57.36;99583.72;6110785;22;97119;-49
2023/09/21 05:12:19;;;;;;;1.07;0.80;;;21.80;99.90;;;21.89;58.99;99597.00;6111032;22;97552;-51
2023/09/21 05:14:46;;;;;;;1.00;0.70;;;21.80;99.90;;;21.89;58.59;99593.47;6114098;22;99761;-52
2023/09/21 05:17:12;;;;;;;0.90;0.60;;;21.80;99.90;;;21.87;58.84;99587.41;6124146;22;97392;-52
2023/09/21 05:19:38;;;;;;;1.57;0.97;;;21.70;99.90;;;21.84;59.19;99588.53;6110388;22;97297;-50
2023/09/21 05:22:04;;;;;;;1.20;0.80;;;21.80;99.90;;;21.82;59.33;99584.31;6109872;22;98784;-49
2023/09/21 05:24:31;;;;;;;1.67;0.83;;;21.80;99.90;;;21.75;59.47;99583.25;6111220;22;97205;-50
2023/09/21 05:26:57;;;;;;;1.83;0.97;;;21.70;99.90;;;21.74;59.66;99592.31;6100391;22;97138;-49
2023/09/21 05:29:23;;;;;;;0.87;0.63;;;21.80;99.90;;;21.77;58.56;99595.50;6110569;22;101801;-53
2023/09/21 05:31:50;;;;;;;0.87;0.60;;;21.80;99.90;;;21.73;59.54;99599.50;6082628;22;97188;-56
2023/09/21 05:34:17;;;;;;;2.83;0.73;;;21.70;99.90;;;21.73;57.68;99604.03;6115156;22;97060;-50
2023/09/21 05:36:47;;;;;;;1.40;0.50;;;21.70;99.90;;;21.76;59.50;99601.03;6109367;22;96780;-53
2023/09/21 05:39:16;;;;;;;1.13;0.90;;;21.70;99.90;;;21.71;59.67;99597.97;6111049;22;97397;-49
2023/09/21 05:41:44;;;;;;;0.90;0.70;;;21.70;99.90;;;21.72;59.87;99588.94;6110312;22;102010;-53
2023/09/21 05:44:10;;;;;;;1.37;0.80;;;21.70;99.90;;;21.66;59.82;99591.19;6110835;22;98223;-49
2023/09/21 05:46:36;;;;;;;1.27;1.10;;;21.70;99.90;;;21.65;59.82;99597.56;6109662;22;97270;-52
2023/09/21 05:49:03;;;;;;;1.40;0.90;;;21.70;99.90;;;21.71;59.39;99603.34;6109147;22;100750;-49
2023/09/21 05:51:30;;;;;;;1.53;0.93;;;21.70;99.90;;;21.75;58.15;99602.88;6110307;22;98129;-50
2023/09/21 05:53:57;;;;;;;1.20;0.90;;;21.70;99.90;;;21.75;59.29;99599.34;6108405;22;98178;-52
2023/09/21 05:56:23;;;;;;;1.13;0.50;;;21.70;99.90;;;21.71;58.24;99603.34;6108552;22;97047;-51
2023/09/21 05:58:48;;;;;;;0.93;0.80;;;21.70;99.90;;;21.72;58.87;99596.97;6112253;22;97394;-49
2023/09/21 06:01:14;;;;;;;1.20;0.77;;;21.70;99.90;;;21.73;56.34;99596.81;6118280;22;101873;-53
2023/09/21 06:03:40;;;;;;;1.40;0.83;;;21.60;99.90;;;21.64;59.50;99593.19;6116801;22;97231;-49
2023/09/21 06:06:07;;;;;;;5.23;1.83;;;21.60;99.90;;;21.67;56.33;99603.63;6115454;22;97429;-48
2023/09/21 06:08:37;;;;;;;1.67;1.00;;;21.60;99.90;;;21.67;59.53;99592.03;6115321;22;97474;-53
2023/09/21 06:11:04;;;;;;;1.73;1.00;;;21.60;99.90;;;21.71;59.00;99596.13;6111817;22;100439;-53
2023/09/21 06:13:31;;;;;;;0.70;0.70;;;21.60;99.90;;;21.64;58.20;99598.56;6117005;22;97357;-48
2023/09/21 06:15:57;;;;;;;1.07;0.90;;;21.60;99.90;;;21.71;59.24;99598.81;6112030;22;97504;-54
2023/09/21 06:18:23;;;;;;;1.80;1.00;;;21.70;99.90;;;21.69;58.19;99601.63;6117389;22;97413;-52
2023/09/21 06:20:49;;;;;;;1.70;1.00;;;21.60;99.90;;;21.66;59.37;99595.72;6114842;22;99529;-50
2023/09/21 06:23:17;;;;;;;1.00;0.80;;;21.60;99.90;;;21.68;58.17;99593.72;6091097;22;117925;-51
2023/09/21 06:25:43;;;;;;;1.07;0.70;;;21.60;99.90;;;21.67;59.34;99592.03;6115977;22;99904;-52
2023/09/21 06:28:10;;;;;;;1.97;1.00;;;21.60;99.90;;;21.58;59.70;99588.44;6109652;22;101249;-50
2023/09/21 06:30:37;;;;;;;0.90;0.67;;;21.60;99.90;;;21.62;59.62;99583.63;6110947;22;98018;-49
2023/09/21 06:33:04;;;;;;;2.00;0.77;;;21.60;99.90;;;21.63;59.59;99580.78;6097102;22;97324;-52
2023/09/21 06:35:30;;;;;;;1.47;0.90;;;21.60;99.90;;;21.62;59.60;99573.72;6064177;22;102518;-52
2023/09/21 06:37:55;;;;;;;1.13;0.87;;;21.60;99.90;;;21.66;55.81;99574.25;6074611;22;97860;-52
2023/09/21 06:40:24;;;;;;;1.77;1.00;;;21.70;99.90;;;21.68;59.33;99573.09;6070264;22;98147;-50
2023/09/21 06:42:50;;;;;;;2.17;0.97;;;21.70;99.90;;;21.69;55.39;99573.94;6090133;22;97786;-55
2023/09/21 06:45:18;;;;;;;1.60;0.80;;;21.70;99.90;;;21.63;59.62;99571.88;6099908;22;97492;-52
2023/09/21 06:47:47;;;;;;;0.90;0.70;;;21.70;99.90;;;21.62;59.67;99570.19;6092283;22;97373;-52
2023/09/21 06:50:14;;;;;;;1.10;0.60;;;21.70;99.90;;;21.56;60.01;99568.97;6099912;22;99415;-52
2023/09/21 06:52:40;;;;;;;1.43;0.90;;;21.60;99.90;;;21.65;59.31;99573.41;6101004;22;97052;-53
2023/09/21 06:55:07;;;;;;;1.70;1.00;;;21.70;99.90;;;21.67;57.27;99566.06;6095146;22;97355;-54
2023/09/21 06:57:34;;;;;;;1.57;0.97;;;21.70;99.90;;;21.71;59.18;99571.16;6098102;22;97477;-53
2023/09/21 07:00:08;;;;;;;1.07;0.70;;;21.70;99.90;;;21.75;59.02;99577.88;6094191;22;99401;-51
2023/09/21 07:02:33;;;;;;;1.37;0.90;;;21.70;99.90;;;21.76;58.79;99567.00;6098136;22;97994;-54
2023/09/21 07:04:59;;;;;;;4.93;1.20;;;21.70;99.90;;;21.70;59.50;99564.94;6096392;22;97632;-54
2023/09/21 07:07:25;;;;;;;1.37;0.70;;;21.70;99.90;;;21.72;59.30;99551.34;6101884;22;97628;-52
2023/09/21 07:09:54;;;;;;;1.03;0.80;;;21.70;99.90;;;21.72;59.24;99551.34;6084775;22;97267;-51
2023/09/21 07:12:22;;;;;;;0.73;0.60;;;21.70;99.90;;;21.67;59.41;99555.31;6070243;22;97420;-53
2023/09/21 07:14:49;;;;;;;9.97;1.30;;;21.70;99.90;;;21.71;58.12;99558.56;6096717;22;98006;-51
2023/09/21 07:17:16;;;;;;;1.67;0.80;;;21.70;99.90;;;21.72;59.30;99551.34;6067981;22;98396;-52
2023/09/21 07:19:43;;;;;;;3.03;1.03;;;21.70;99.90;;;21.68;59.44;99561.53;6094636;22;97776;-52
2023/09/21 07:22:10;;;;;;;2.10;1.03;;;21.70;99.90;;;21.77;56.21;99557.09;6070647;22;97455;-52
2023/09/21 07:24:37;;;;;;;2.60;0.83;;;21.80;99.90;;;21.74;59.33;99554.72;6100153;22;97301;-54
2023/09/21 07:27:03;;;;;;;2.47;1.03;;;21.70;99.90;;;21.82;58.84;99565.53;6104445;22;97430;-51
2023/09/21 07:29:31;;;;;;;1.07;0.63;;;21.80;99.90;;;21.72;59.25;99567.47;6091075;22;101622;-47
2023/09/21 07:31:59;;;;;;;0.90;0.70;;;21.80;99.90;;;21.72;59.40;99562.09;6084164;22;98246;-52
2023/09/21 07:34:24;;;;;;;1.77;0.87;;;21.70;99.90;;;21.61;58.19;99566.66;6077753;22;97134;-52
2023/09/21 07:36:51;;;;;;;1.63;1.00;;;21.70;99.90;;;21.74;57.95;99570.84;6098960;22;96804;-51
2023/09/21 07:39:17;;;;;;;2.17;0.90;;;21.70;99.90;;;21.74;58.14;99570.84;6099252;22;98070;-52
2023/09/21 07:41:46;;;;;;;1.53;1.00;;;21.70;99.90;;;21.75;59.14;99568.00;6097408;22;98425;-47
2023/09/21 07:44:13;;;;;;;3.00;1.10;;;21.80;99.90;;;21.74;58.97;99560.09;6097809;22;97617;-51
2023/09/21 07:46:39;;;;;;;1.63;0.90;;;21.80;99.90;;;21.73;59.44;99563.78;6107658;22;97254;-51
2023/09/21 07:49:05;;;;;;;1.50;0.90;;;21.80;99.90;;;21.81;57.43;99561.16;6096676;22;97276;-54
2023/09/21 07:51:33;;;;;;;2.13;1.13;;;21.80;99.90;;;21.86;58.76;99556.19;6096866;22;98212;-50
2023/09/21 07:54:02;;;;;;;0.90;0.70;;;21.80;99.90;;;21.81;59.09;99561.16;6096135;22;97048;-54
2023/09/21 07:56:31;;;;;;;1.63;1.00;;;21.80;99.90;;;21.74;57.94;99560.09;6092265;22;98410;-53
2023/09/21 07:58:58;;;;;;;1.43;1.03;;;21.80;99.90;;;21.84;58.27;99561.69;6093876;22;99604;-52
2023/09/21 08:01:26;;;;;;;1.00;0.70;;;21.80;99.90;;;21.86;58.55;99556.19;6097335;22;103574;-53
2023/09/21 08:03:54;;;;;;;1.93;1.00;;;21.90;99.90;;;21.86;58.24;99559.72;6092448;22;97754;-52
2023/09/21 08:06:22;;;;;;;1.90;0.90;;;21.90;99.90;;;21.86;58.34;99567.78;6097296;22;99324;-52
2023/09/21 08:08:52;;;;;;;1.87;1.27;;;21.90;99.90;;;21.93;57.32;99570.69;6095704;22;97662;-51
2023/09/21 08:11:18;;;;;;;2.00;1.00;;;21.90;99.90;;;21.96;56.81;99568.53;6093748;22;97781;-50
2023/09/21 08:13:44;;;;;;;1.50;0.97;;;21.90;99.90;;;21.97;57.67;99572.88;6085647;22;97209;-53
2023/09/21 08:16:10;;;;;;;7.23;1.37;;;21.90;99.90;;;21.95;58.16;99574.03;6063923;22;97236;-55
2023/09/21 08:18:36;;;;;;;5.00;1.60;;;21.90;99.90;;;21.99;57.75;99575.44;6067988;22;104049;-54
2023/09/21 08:21:04;;;;;;;3.83;1.10;;;22.00;99.90;;;22.01;57.91;99577.97;6093796;22;97830;-50
2023/09/21 08:23:31;;;;;;;2.00;0.90;;;22.00;99.90;;;21.86;58.93;99574.97;6072006;22;97728;-49
2023/09/21 08:25:58;;;;;;;3.77;0.80;;;21.90;99.90;;;21.91;58.41;99575.34;6097753;22;97335;-51
2023/09/21 08:28:25;;;;;;;1.50;0.90;;;21.90;99.90;;;21.95;58.06;99574.03;6101438;22;97451;-47
2023/09/21 08:30:54;;;;;;;1.43;0.87;;;21.90;99.90;;;21.93;58.80;99581.41;6098254;22;99197;-50
2023/09/21 08:33:20;;;;;;;1.53;0.97;;;21.90;99.90;;;21.97;57.95;99588.16;6097500;22;97311;-54
2023/09/21 08:35:45;;;;;;;1.63;1.20;;;22.00;99.90;;;21.99;57.88;99594.25;6096800;22;97561;-53
2023/09/21 08:38:11;;;;;;;1.03;0.93;;;22.00;99.90;;;22.03;57.10;99598.31;6070673;22;98121;-54
2023/09/21 08:40:38;;;;;;;4.77;1.33;;;22.00;99.90;;;21.91;58.37;99591.47;6096767;22;97763;-50
2023/09/21 08:43:04;;;;;;;2.63;1.13;;;21.90;99.90;;;21.95;58.18;99590.16;6094084;22;96929;-53
2023/09/21 08:45:31;;;;;;;2.03;1.10;;;21.90;99.90;;;21.99;58.20;99586.19;6097000;22;99638;-54
2023/09/21 08:47:57;;;;;;;3.43;1.37;;;22.00;99.90;;;21.95;58.66;99585.63;6070879;22;97224;-53
2023/09/21 08:50:26;;;;;;;1.88;1.23;;;22.00;99.90;;;22.01;57.72;99589.56;6096782;22;107192;-51
2023/09/21 08:52:54;;;;;;;2.60;1.00;;;22.00;99.90;;;22.04;57.80;99594.63;6095830;22;97070;-53
2023/09/21 08:55:25;;;;;;;1.93;1.20;;;22.00;99.90;;;21.97;58.56;99588.16;6075363;22;97533;-54
2023/09/21 08:57:53;;;;;;;1.83;1.27;;;22.00;99.90;;;21.98;58.84;99585.31;6094322;22;97837;-52
2023/09/21 09:00:26;;;;;;;2.03;1.00;;;22.00;99.90;;;21.95;58.74;99587.47;6068482;22;123703;-51
2023/09/21 09:02:53;;;;;;;1.40;1.00;;;22.00;99.90;;;21.94;58.89;99588.47;6087747;22;97111;-55
2023/09/21 09:05:19;;;;;;;1.43;1.00;;;22.00;99.90;;;21.98;59.03;99584.47;6103945;22;100013;-56
2023/09/21 09:07:45;;;;;;;0.90;0.80;;;22.00;99.90;;;22.04;58.18;99586.56;6105653;22;102215;-53
2023/09/21 09:10:13;;;;;;;2.63;1.13;;;22.00;99.90;;;22.09;58.38;99586.97;6099001;22;121487;-53
2023/09/21 09:12:40;;;;;;;2.77;1.13;;;22.10;99.90;;;22.02;58.77;99593.94;6096658;22;97431;-52
2023/09/21 09:15:08;;;;;;;4.87;1.10;;;22.10;99.90;;;22.04;58.82;99593.78;6101827;22;97152;-54
2023/09/21 09:17:35;;;;;;;2.67;1.47;;;22.10;99.90;;;22.09;59.55;99602.22;6072134;22;97452;-53
2023/09/21 09:20:05;;;;;;;0.80;0.77;;;22.10;99.90;;;22.14;58.62;99599.94;6090353;22;97288;-55
2023/09/21 09:22:34;;;;;;;7.10;1.50;;;22.10;99.90;;;22.14;58.43;99594.56;6091620;22;97206;-55
2023/09/21 09:25:11;;;;;;;1.53;0.80;;;22.20;99.90;;;22.19;58.62;99589.56;6098090;22;97706;-49
2023/09/21 09:27:41;;;;;;;2.05;1.00;;;22.20;99.90;;;22.13;58.52;99588.38;6089470;22;97596;-49
2023/09/21 09:30:08;;;;;;;4.22;1.17;;;22.20;99.90;;;22.14;58.77;99598.09;6091537;22;98371;-53
2023/09/21 09:32:41;;;;;;;2.70;1.03;;;22.20;99.90;;;22.18;58.66;99595.94;6099597;22;100499;-54
2023/09/21 09:35:14;;;;;;;4.07;1.10;;;22.20;99.90;;;22.17;58.85;99586.22;6098259;22;98185;-52
2023/09/21 09:37:44;;;;;;;4.33;0.90;;;22.20;99.90;;;22.12;58.79;99586.66;6096751;22;97165;-54
2023/09/21 09:40:18;;;;;;;1.43;0.90;;;22.20;99.90;;;22.22;58.60;99586.56;6048691;22;97579;-51
2023/09/21 09:42:46;;;;;;;1.93;1.30;;;22.20;99.90;;;22.20;58.55;99585.88;6105797;22;98593;-52
2023/09/21 09:45:20;;;;;;;3.53;1.10;;;22.20;99.90;;;22.25;58.49;99584.41;6112840;22;97532;-49
2023/09/21 09:47:56;;;;;;;1.40;0.83;;;22.20;99.90;;;22.25;58.52;99584.41;6115516;22;101435;-51
2023/09/21 09:50:24;;;;;;;2.27;0.87;;;22.30;99.90;;;22.25;58.83;99584.41;6114994;22;99535;-51
2023/09/21 09:53:01;;;;;;;2.87;1.17;;;22.30;99.90;;;22.30;58.52;99585.81;6117331;22;97085;-54
2023/09/21 09:55:33;;;;;;;1.93;1.10;;;22.30;99.90;;;22.31;58.45;99584.81;6065645;22;97080;-51
2023/09/21 09:58:03;;;;;;;2.93;1.03;;;22.30;99.90;;;22.30;58.40;99583.97;6112038;22;97893;-51
2023/09/21 10:00:30;;;;;;;1.73;0.97;;;22.30;99.90;;;22.28;58.41;99575.22;6113188;22;98368;-53
2023/09/21 10:02:58;;;;;;;4.53;1.17;;;22.30;99.90;;;22.21;58.69;99580.38;6109739;22;97255;-53
2023/09/21 10:05:26;;;;;;;1.20;1.00;;;22.20;99.90;;;22.25;58.74;99570.16;6106807;22;97635;-53
2023/09/21 10:07:57;;;;;;;2.00;1.20;;;22.30;99.90;;;22.30;59.73;99573.22;6111349;22;97205;-52
2023/09/21 10:10:27;;;;;;;3.17;1.17;;;22.30;99.90;;;22.36;58.57;99571.75;6113054;22;97440;-50
2023/09/21 10:12:55;;;;;;;2.30;0.95;;;22.30;99.90;;;22.35;58.57;99570.91;6094017;22;97162;-48
2023/09/21 10:15:24;;;;;;;1.83;0.85;;;22.30;99.90;;;22.30;59.02;99572.38;6101817;22;97055;-55
2023/09/21 10:17:54;;;;;;;0.70;0.70;;;22.30;99.90;;;22.25;58.79;99570.97;6106320;22;98001;-51
2023/09/21 10:20:29;;;;;;;14.23;1.37;;;22.30;99.90;;;22.20;59.41;99565.25;6113133;22;97179;-54
2023/09/21 10:22:58;;;;;;;2.67;1.30;;;22.30;99.90;;;22.25;59.01;99570.97;6114274;22;97580;-49